Time;durP1;ratioP1;P1;durP2;ratioP2;P2;SDS_P1;SDS_P2;PMS_P1;PMS_P2;Temp;Humidity;BMP_temperature;BMP_pressure;BME280_temperature;BME280_humidity;BME280_pressure;Samples;Min_cycle;Max_cycle;Signal;HPM_P1;HPM_P2
2021/06/26 00:00:53;;;;;;;9.07;6.22;;;16.90;76.30;;;;;;4952884;28;20647;-89
2021/06/26 00:03:24;;;;;;;5.25;4.75;;;16.90;76.10;;;;;;4952852;29;20187;-88
2021/06/26 00:05:50;;;;;;;4.90;4.43;;;16.90;75.90;;;;;;4953935;28;20206;-88
2021/06/26 00:08:16;;;;;;;6.68;5.20;;;16.90;75.60;;;;;;4953797;29;20195;-88
2021/06/26 00:10:43;;;;;;;4.90;4.05;;;16.90;75.40;;;;;;4953858;28;20592;-88
2021/06/26 00:13:09;;;;;;;6.45;4.50;;;17.00;75.10;;;;;;4953857;28;20206;-88
2021/06/26 00:15:35;;;;;;;6.50;4.43;;;17.00;74.90;;;;;;4952532;28;20647;-88
2021/06/26 00:18:01;;;;;;;6.45;4.15;;;17.00;74.80;;;;;;4953640;29;20187;-88
2021/06/26 00:20:27;;;;;;;7.18;4.13;;;17.00;74.90;;;;;;4953768;28;20242;-88
2021/06/26 00:22:53;;;;;;;4.55;4.07;;;16.90;74.70;;;;;;4952062;29;20182;-88
2021/06/26 00:25:19;;;;;;;4.15;3.85;;;16.90;74.60;;;;;;4951897;29;20183;-88
2021/06/26 00:27:44;;;;;;;5.25;4.38;;;17.00;74.60;;;;;;4952386;28;20179;-88
2021/06/26 00:30:11;;;;;;;4.93;4.32;;;16.90;74.50;;;;;;4952408;29;20228;-88
2021/06/26 00:32:37;;;;;;;4.72;4.22;;;16.80;74.60;;;;;;4953492;28;20175;-88
2021/06/26 00:35:03;;;;;;;4.55;3.88;;;16.80;74.80;;;;;;4952270;28;20206;-88
2021/06/26 00:37:29;;;;;;;4.45;4.05;;;16.80;75.10;;;;;;4953311;28;20175;-88
2021/06/26 00:39:55;;;;;;;5.57;4.05;;;16.70;75.10;;;;;;4953336;29;20193;-88
2021/06/26 00:42:21;;;;;;;5.80;4.75;;;16.70;75.00;;;;;;4952243;28;20180;-88
2021/06/26 00:44:46;;;;;;;4.72;4.32;;;16.60;75.00;;;;;;4953477;28;20682;-88
2021/06/26 00:47:13;;;;;;;5.03;4.63;;;16.60;74.90;;;;;;4952055;28;20180;-89
2021/06/26 00:49:40;;;;;;;6.68;4.05;;;16.60;74.90;;;;;;4952115;28;20290;-88
2021/06/26 00:52:07;;;;;;;4.45;3.72;;;16.50;74.90;;;;;;4952046;29;20179;-88
2021/06/26 00:54:36;;;;;;;5.40;4.93;;;16.50;74.90;;;;;;4953189;28;20206;-88
2021/06/26 00:57:02;;;;;;;7.50;5.70;;;16.40;76.60;;;;;;4953052;29;20176;-89
2021/06/26 00:59:28;;;;;;;10.75;5.82;;;16.20;77.90;;;;;;4951903;29;20199;-88
2021/06/26 01:01:54;;;;;;;9.60;5.50;;;16.20;78.00;;;;;;4951893;29;20176;-88
2021/06/26 01:04:20;;;;;;;5.85;5.28;;;16.20;77.60;;;;;;4953056;29;20245;-88
2021/06/26 01:06:45;;;;;;;6.18;4.55;;;16.20;77.70;;;;;;4951743;28;20175;-88
2021/06/26 01:09:11;;;;;;;7.30;4.65;;;16.20;77.30;;;;;;4951771;29;20750;-89
2021/06/26 01:11:37;;;;;;;5.18;4.47;;;16.20;77.10;;;;;;4952948;29;20262;-89
2021/06/26 01:14:03;;;;;;;9.68;4.78;;;16.30;77.20;;;;;;4951626;28;20203;-88
2021/06/26 01:16:28;;;;;;;5.47;4.57;;;16.30;77.30;;;;;;4951647;29;20218;-88
2021/06/26 01:18:54;;;;;;;5.32;4.55;;;16.30;77.30;;;;;;4951542;28;20191;-88
2021/06/26 01:21:20;;;;;;;7.13;4.45;;;16.30;77.20;;;;;;4951582;28;20271;-89
2021/06/26 01:23:49;;;;;;;7.13;4.65;;;16.20;76.30;;;;;;4951633;29;20175;-89
2021/06/26 01:26:15;;;;;;;10.50;4.45;;;16.20;75.50;;;;;;4951609;29;20672;-89
2021/06/26 01:28:41;;;;;;;5.63;4.88;;;16.20;75.90;;;;;;4952670;28;20198;-89
2021/06/26 01:31:07;;;;;;;7.18;5.00;;;16.20;76.60;;;;;;4951491;29;20574;-89
2021/06/26 01:33:33;;;;;;;10.18;4.72;;;16.30;76.40;;;;;;4952579;28;20569;-89
2021/06/26 01:35:58;;;;;;;7.60;5.00;;;16.30;75.90;;;;;;4952634;28;20255;-88
2021/06/26 01:38:24;;;;;;;6.65;4.63;;;16.30;76.20;;;;;;4951257;28;20230;-88
2021/06/26 01:40:49;;;;;;;6.13;4.88;;;16.40;76.10;;;;;;4952559;29;20167;-88
2021/06/26 01:43:15;;;;;;;6.00;4.45;;;16.40;76.30;;;;;;4952808;29;20183;-88
2021/06/26 01:45:41;;;;;;;5.95;5.18;;;16.40;76.40;;;;;;4952705;29;20174;-88
2021/06/26 01:48:07;;;;;;;4.57;4.18;;;16.40;76.60;;;;;;4951208;29;20203;-89
2021/06/26 01:50:33;;;;;;;6.53;4.60;;;16.40;76.90;;;;;;4952509;28;20179;-88
2021/06/26 01:53:00;;;;;;;4.90;4.40;;;16.30;77.10;;;;;;4952652;29;20186;-88
2021/06/26 01:55:27;;;;;;;8.57;4.82;;;16.30;77.00;;;;;;4951142;29;20179;-88
2021/06/26 01:57:53;;;;;;;6.15;4.70;;;16.40;76.80;;;;;;4952359;28;20195;-88
2021/06/26 02:00:21;;;;;;;7.03;4.75;;;16.40;76.60;;;;;;4952693;28;20207;-88
2021/06/26 02:02:47;;;;;;;12.38;4.97;;;16.40;76.70;;;;;;4951467;29;20175;-88
2021/06/26 02:05:15;;;;;;;12.65;4.25;;;16.40;76.40;;;;;;4950994;28;20191;-88
2021/06/26 02:07:40;;;;;;;9.07;4.57;;;16.40;76.40;;;;;;4951076;29;20565;-88
2021/06/26 02:10:07;;;;;;;8.35;5.03;;;16.50;76.80;;;;;;4951062;28;20179;-88
2021/06/26 02:12:33;;;;;;;6.05;4.45;;;16.40;76.90;;;;;;4951253;29;20549;-89
2021/06/26 02:14:58;;;;;;;6.20;4.55;;;16.30;77.00;;;;;;4952106;29;20199;-89
2021/06/26 02:17:24;;;;;;;6.63;4.75;;;16.40;76.70;;;;;;4950968;29;20270;-89
2021/06/26 02:19:50;;;;;;;6.35;4.45;;;16.40;76.80;;;;;;4952044;29;20195;-88
2021/06/26 02:22:17;;;;;;;7.90;4.95;;;16.30;77.10;;;;;;4950917;29;20659;-89
2021/06/26 02:24:43;;;;;;;8.82;4.80;;;16.30;76.90;;;;;;4952063;28;20266;-88
2021/06/26 02:27:09;;;;;;;7.70;4.82;;;16.30;76.90;;;;;;4950918;29;20180;-88
2021/06/26 02:29:36;;;;;;;11.18;5.05;;;16.20;78.00;;;;;;4951983;29;20188;-88
2021/06/26 02:32:03;;;;;;;7.93;4.60;;;16.20;79.70;;;;;;4951960;28;20203;-88
2021/06/26 02:34:28;;;;;;;12.02;4.97;;;16.10;79.70;;;;;;4951882;28;20202;-88
2021/06/26 02:36:54;;;;;;;13.52;4.65;;;16.10;79.60;;;;;;4950640;28;20175;-89
2021/06/26 02:39:19;;;;;;;11.88;4.43;;;16.10;79.20;;;;;;4951693;29;20215;-88
2021/06/26 02:41:45;;;;;;;9.98;4.13;;;16.10;79.00;;;;;;4950678;28;20176;-89
2021/06/26 02:44:11;;;;;;;6.75;4.63;;;16.10;79.10;;;;;;4951833;29;20647;-88
2021/06/26 02:46:36;;;;;;;9.95;4.57;;;16.10;79.00;;;;;;4952102;29;20237;-88
2021/06/26 02:49:03;;;;;;;11.02;5.10;;;16.10;79.00;;;;;;4954965;29;20207;-89
2021/06/26 02:51:29;;;;;;;6.00;5.40;;;16.00;78.40;;;;;;4953913;29;20250;-88
2021/06/26 02:53:54;;;;;;;11.95;5.28;;;15.90;78.00;;;;;;4953880;28;20225;-89
2021/06/26 02:56:20;;;;;;;7.13;5.50;;;15.90;77.70;;;;;;4953978;28;20790;-88
2021/06/26 02:58:45;;;;;;;5.70;4.90;;;15.80;77.90;;;;;;4955113;28;20198;-89
2021/06/26 03:01:11;;;;;;;5.32;4.82;;;15.80;78.10;;;;;;4955093;29;20671;-89
2021/06/26 03:03:37;;;;;;;6.43;5.00;;;15.90;77.70;;;;;;4953763;28;20190;-88
2021/06/26 03:06:02;;;;;;;9.00;5.30;;;16.00;77.80;;;;;;4953642;28;20266;-89
2021/06/26 03:08:28;;;;;;;5.70;5.20;;;16.00;78.10;;;;;;4953578;29;20207;-88
2021/06/26 03:10:53;;;;;;;8.93;5.43;;;16.00;78.50;;;;;;4953593;28;20260;-88
2021/06/26 03:13:19;;;;;;;7.45;6.53;;;16.00;80.00;;;;;;4954257;28;20250;-88
2021/06/26 03:15:45;;;;;;;7.00;4.53;;;16.00;80.40;;;;;;4953459;28;20175;-88
2021/06/26 03:18:11;;;;;;;6.60;5.15;;;16.00;80.50;;;;;;4953453;29;20195;-88
2021/06/26 03:20:36;;;;;;;5.57;5.07;;;16.00;80.60;;;;;;4954675;29;20226;-88
2021/06/26 03:23:02;;;;;;;5.80;5.30;;;16.00;80.60;;;;;;4953524;28;20192;-88
2021/06/26 03:25:28;;;;;;;6.13;5.20;;;16.00;80.60;;;;;;4953397;29;20186;-88
2021/06/26 03:27:54;;;;;;;5.60;5.10;;;16.00;80.50;;;;;;4954419;29;20199;-88
2021/06/26 03:30:19;;;;;;;6.05;5.35;;;16.00;80.40;;;;;;4953279;28;20229;-88
2021/06/26 03:32:45;;;;;;;6.07;5.47;;;16.00;80.40;;;;;;4954759;28;20183;-89
2021/06/26 03:35:11;;;;;;;5.70;5.13;;;16.00;80.30;;;;;;4953090;29;20203;-89
2021/06/26 03:37:37;;;;;;;7.65;5.93;;;15.90;80.70;;;;;;4954358;28;20167;-88
2021/06/26 03:40:04;;;;;;;20.50;6.65;;;15.80;81.00;;;;;;4953075;28;20202;-88
2021/06/26 03:42:29;;;;;;;41.57;8.57;;;15.60;82.30;;;;;;4953082;29;20198;-88
2021/06/26 03:44:55;;;;;;;39.30;7.25;;;15.40;82.60;;;;;;4954237;29;20652;-88
2021/06/26 03:47:20;;;;;;;33.53;7.00;;;15.40;82.60;;;;;;4953066;28;20179;-88
2021/06/26 03:49:46;;;;;;;40.83;8.03;;;15.30;83.70;;;;;;4953186;28;20318;-88
2021/06/26 03:52:12;;;;;;;43.37;9.10;;;15.20;84.00;;;;;;4954118;29;20180;-88
2021/06/26 03:54:37;;;;;;;42.20;9.30;;;15.10;84.50;;;;;;4954097;29;20202;-88
2021/06/26 03:57:04;;;;;;;36.13;8.23;;;15.00;84.60;;;;;;4952890;28;20176;-88
2021/06/26 03:59:29;;;;;;;37.23;7.90;;;15.00;84.50;;;;;;4952686;29;20200;-88
2021/06/26 04:01:55;;;;;;;31.43;8.53;;;14.90;85.00;;;;;;4954003;29;20175;-88
2021/06/26 04:04:21;;;;;;;34.80;8.23;;;14.90;85.50;;;;;;4954464;29;20176;-88
2021/06/26 04:06:47;;;;;;;34.23;8.57;;;14.90;85.50;;;;;;4952754;28;20543;-88
2021/06/26 04:09:13;;;;;;;33.97;9.17;;;14.90;85.50;;;;;;4952610;29;20203;-88
2021/06/26 04:11:39;;;;;;;33.93;10.63;;;14.90;85.20;;;;;;4953916;28;20179;-88
2021/06/26 04:14:05;;;;;;;42.07;10.10;;;15.00;85.10;;;;;;4953726;29;20560;-88
2021/06/26 04:16:31;;;;;;;37.80;9.73;;;15.00;85.30;;;;;;4953825;28;20243;-88
2021/06/26 04:18:57;;;;;;;45.60;10.20;;;15.00;85.40;;;;;;4953757;28;20308;-88
2021/06/26 04:21:22;;;;;;;37.40;11.17;;;15.20;85.50;;;;;;4952468;29;20778;-89
2021/06/26 04:23:48;;;;;;;36.73;10.10;;;15.20;85.20;;;;;;4952474;29;20211;-89
2021/06/26 04:26:14;;;;;;;28.40;9.63;;;15.30;84.70;;;;;;4952434;29;20176;-88
2021/06/26 04:28:39;;;;;;;34.80;10.13;;;15.40;84.60;;;;;;4952321;29;20212;-88
2021/06/26 04:31:05;;;;;;;26.07;9.97;;;15.50;84.60;;;;;;4952350;29;20551;-88
2021/06/26 04:33:30;;;;;;;30.67;9.93;;;15.50;84.10;;;;;;4952291;28;20199;-88
2021/06/26 04:35:56;;;;;;;24.43;9.73;;;15.60;84.50;;;;;;4953792;29;20168;-88
2021/06/26 04:38:22;;;;;;;30.27;9.33;;;15.80;84.40;;;;;;4952063;28;20211;-88
2021/06/26 04:40:51;;;;;;;33.43;10.27;;;15.90;83.40;;;;;;4953472;29;20171;-88
2021/06/26 04:43:20;;;;;;;36.20;9.57;;;16.00;83.80;;;;;;4953393;28;20255;-89
2021/06/26 04:45:47;;;;;;;20.50;9.60;;;16.00;83.00;;;;;;4952162;28;20199;-88
2021/06/26 04:48:16;;;;;;;27.53;10.47;;;16.10;83.00;;;;;;4953630;28;20191;-88
2021/06/26 04:50:42;;;;;;;24.07;11.40;;;16.30;84.20;;;;;;4952168;29;20651;-88
2021/06/26 04:53:07;;;;;;;13.47;9.67;;;16.40;84.40;;;;;;4953235;29;20206;-89
2021/06/26 04:55:34;;;;;;;13.40;10.00;;;16.50;82.70;;;;;;4953157;28;20208;-88
2021/06/26 04:58:00;;;;;;;14.67;9.20;;;16.60;82.00;;;;;;4951885;29;20234;-89
2021/06/26 05:00:25;;;;;;;15.63;9.90;;;16.60;81.50;;;;;;4953118;29;20187;-88
2021/06/26 05:02:51;;;;;;;13.90;9.73;;;16.70;80.60;;;;;;4951908;28;20179;-88
2021/06/26 05:05:17;;;;;;;16.10;8.30;;;16.70;80.50;;;;;;4951965;28;20184;-89
2021/06/26 05:07:42;;;;;;;12.98;7.95;;;16.70;79.50;;;;;;4951828;29;20187;-89
2021/06/26 05:10:08;;;;;;;13.27;8.70;;;16.80;80.20;;;;;;4952483;29;20619;-89
2021/06/26 05:12:34;;;;;;;12.55;9.25;;;16.80;80.60;;;;;;4951780;29;20187;-89
2021/06/26 05:15:00;;;;;;;15.07;9.23;;;16.80;80.70;;;;;;4951687;28;20701;-89
2021/06/26 05:17:25;;;;;;;10.40;9.00;;;16.80;80.80;;;;;;4951715;28;20183;-89
2021/06/26 05:19:51;;;;;;;12.93;8.75;;;16.90;80.20;;;;;;4951667;28;20196;-88
2021/06/26 05:22:17;;;;;;;13.32;9.77;;;17.00;80.40;;;;;;4951627;28;20601;-88
2021/06/26 05:24:42;;;;;;;11.52;9.65;;;17.00;80.10;;;;;;4951695;28;20199;-88
2021/06/26 05:27:08;;;;;;;13.32;9.65;;;17.00;80.30;;;;;;4952771;29;20229;-88
2021/06/26 05:29:40;;;;;;;12.00;8.73;;;17.00;80.10;;;;;;4951487;29;20226;-89
2021/06/26 05:32:06;;;;;;;12.73;9.20;;;17.10;80.60;;;;;;4953025;29;20214;-89
2021/06/26 05:34:32;;;;;;;10.00;8.82;;;17.10;81.10;;;;;;4952615;28;20321;-88
2021/06/26 05:36:57;;;;;;;10.00;9.00;;;17.20;81.10;;;;;;4951423;28;20273;-88
2021/06/26 05:39:23;;;;;;;10.85;9.75;;;17.10;80.50;;;;;;4952600;29;20750;-89
2021/06/26 05:41:48;;;;;;;10.13;9.07;;;17.10;81.10;;;;;;4951421;29;20214;-89
2021/06/26 05:44:14;;;;;;;14.50;9.18;;;17.10;81.40;;;;;;4952555;29;20182;-89
2021/06/26 05:46:40;;;;;;;12.07;8.85;;;17.10;81.60;;;;;;4951284;28;20252;-89
2021/06/26 05:49:05;;;;;;;15.60;8.55;;;17.20;81.70;;;;;;4951240;29;20742;-88
2021/06/26 05:51:31;;;;;;;10.35;8.02;;;17.30;81.40;;;;;;4951236;29;20176;-89
2021/06/26 05:53:57;;;;;;;11.32;8.75;;;17.50;80.80;;;;;;4952366;29;20282;-89
2021/06/26 05:56:22;;;;;;;9.85;8.50;;;17.70;80.70;;;;;;4952499;29;20636;-89
2021/06/26 05:58:48;;;;;;;16.98;9.23;;;17.70;79.40;;;;;;4952311;29;20191;-89
2021/06/26 06:01:13;;;;;;;14.35;8.40;;;17.90;79.80;;;;;;4951161;28;20175;-89
2021/06/26 06:03:39;;;;;;;10.57;8.40;;;18.00;79.20;;;;;;4951253;28;20210;-89
2021/06/26 06:06:06;;;;;;;17.35;8.18;;;18.20;78.70;;;;;;4951147;29;20598;-88
2021/06/26 06:08:31;;;;;;;12.07;7.63;;;18.30;78.20;;;;;;4951054;29;20293;-88
2021/06/26 06:10:58;;;;;;;8.07;7.22;;;18.30;76.60;;;;;;4951013;29;20252;-88
2021/06/26 06:13:24;;;;;;;11.80;8.45;;;18.40;76.80;;;;;;4950886;29;20252;-88
2021/06/26 06:15:50;;;;;;;10.25;8.10;;;18.40;76.10;;;;;;4952198;29;20180;-88
2021/06/26 06:18:17;;;;;;;12.02;8.70;;;18.50;75.90;;;;;;4952094;28;20227;-87
2021/06/26 06:20:43;;;;;;;14.82;8.38;;;18.50;75.90;;;;;;4950899;28;20229;-88
2021/06/26 06:23:09;;;;;;;9.60;7.43;;;18.50;76.00;;;;;;4953482;29;20176;-88
2021/06/26 06:25:35;;;;;;;8.43;7.35;;;18.60;76.20;;;;;;4954208;28;20171;-88
2021/06/26 06:28:04;;;;;;;9.70;7.53;;;18.70;74.90;;;;;;4954215;29;20222;-88
2021/06/26 06:30:32;;;;;;;9.52;7.72;;;18.70;74.30;;;;;;4954153;29;20180;-88
2021/06/26 06:32:59;;;;;;;8.77;7.93;;;18.80;73.80;;;;;;4954164;29;20180;-88
2021/06/26 06:35:25;;;;;;;9.00;8.00;;;18.80;72.80;;;;;;4955200;28;20196;-88
2021/06/26 06:37:51;;;;;;;9.50;7.60;;;18.80;72.40;;;;;;4953809;28;20536;-87
2021/06/26 06:40:17;;;;;;;8.70;7.80;;;18.90;73.50;;;;;;4955253;28;20217;-88
2021/06/26 06:42:42;;;;;;;9.07;8.15;;;19.00;73.20;;;;;;4953951;29;20582;-88
2021/06/26 06:45:09;;;;;;;9.23;8.07;;;19.00;73.90;;;;;;4955102;29;20186;-88
2021/06/26 06:47:35;;;;;;;8.57;7.68;;;19.10;74.10;;;;;;4953731;29;20179;-88
2021/06/26 06:50:02;;;;;;;9.30;8.40;;;19.20;73.90;;;;;;4955049;28;20527;-87
2021/06/26 06:52:28;;;;;;;9.48;8.57;;;19.20;71.10;;;;;;4953794;29;20179;-88
2021/06/26 06:54:53;;;;;;;8.73;7.90;;;19.30;71.40;;;;;;4953632;28;20210;-88
2021/06/26 06:57:22;;;;;;;9.20;8.32;;;19.30;71.20;;;;;;4954899;29;20179;-88
2021/06/26 06:59:48;;;;;;;9.70;8.52;;;19.40;69.50;;;;;;4955134;29;20188;-88
2021/06/26 07:02:14;;;;;;;15.70;8.68;;;19.50;67.20;;;;;;4953662;29;20176;-88
2021/06/26 07:04:40;;;;;;;10.77;8.50;;;19.60;68.90;;;;;;4953654;29;20278;-88
2021/06/26 07:07:05;;;;;;;8.13;7.18;;;19.70;67.80;;;;;;4954857;29;20183;-88
2021/06/26 07:09:31;;;;;;;8.10;7.30;;;19.90;69.00;;;;;;4954758;28;20215;-88
2021/06/26 07:11:58;;;;;;;12.13;7.82;;;20.00;67.70;;;;;;4953532;28;20180;-89
2021/06/26 07:14:24;;;;;;;10.80;8.52;;;20.10;66.70;;;;;;4954924;28;20725;-89
2021/06/26 07:16:49;;;;;;;9.68;7.63;;;20.20;65.50;;;;;;4954716;28;20180;-89
2021/06/26 07:19:15;;;;;;;9.73;7.72;;;20.30;67.10;;;;;;4953468;29;20199;-89
2021/06/26 07:21:41;;;;;;;9.20;7.20;;;20.40;66.00;;;;;;4954666;29;20604;-89
2021/06/26 07:24:07;;;;;;;6.90;6.28;;;20.40;66.60;;;;;;4954021;28;20183;-89
2021/06/26 07:26:33;;;;;;;8.45;7.05;;;20.60;67.20;;;;;;4954468;29;20225;-88
2021/06/26 07:28:59;;;;;;;7.97;6.65;;;20.70;64.90;;;;;;4954505;29;20274;-89
2021/06/26 07:31:24;;;;;;;8.68;7.07;;;20.70;65.50;;;;;;4954397;28;20175;-89
2021/06/26 07:33:50;;;;;;;6.60;6.07;;;20.80;64.30;;;;;;4953914;29;20203;-89
2021/06/26 07:36:16;;;;;;;8.13;5.78;;;20.90;62.90;;;;;;4954671;28;20172;-89
2021/06/26 07:38:41;;;;;;;6.35;5.13;;;20.80;61.80;;;;;;4954327;29;20304;-89
2021/06/26 07:41:07;;;;;;;4.78;4.28;;;20.90;61.60;;;;;;4954395;29;20255;-89
2021/06/26 07:43:35;;;;;;;8.27;5.15;;;20.80;57.90;;;;;;4953133;28;20548;-89
2021/06/26 07:46:03;;;;;;;7.45;5.20;;;20.90;59.10;;;;;;4952955;29;20211;-88
2021/06/26 07:48:29;;;;;;;13.68;8.35;;;20.90;58.70;;;;;;4952881;29;20205;-88
2021/06/26 07:50:56;;;;;;;8.13;6.55;;;21.00;59.30;;;;;;4953007;28;20601;-89
2021/06/26 07:53:22;;;;;;;10.25;6.20;;;21.10;58.90;;;;;;4952836;29;20353;-89
2021/06/26 07:55:53;;;;;;;7.10;6.00;;;21.40;60.10;;;;;;4952958;28;20258;-89
2021/06/26 07:58:24;;;;;;;8.70;7.80;;;21.40;59.00;;;;;;4954137;29;20215;-89
2021/06/26 08:00:51;;;;;;;11.68;7.30;;;21.10;58.70;;;;;;4952958;29;20171;-90
2021/06/26 08:03:17;;;;;;;7.85;5.45;;;21.20;58.10;;;;;;4954135;28;20179;-89
2021/06/26 08:05:44;;;;;;;6.47;5.63;;;21.40;61.00;;;;;;4953037;29;20207;-89
2021/06/26 08:08:10;;;;;;;6.93;5.82;;;21.30;60.30;;;;;;4953725;28;20206;-88
2021/06/26 08:10:38;;;;;;;8.65;7.80;;;21.60;57.60;;;;;;4953832;28;20210;-88
2021/06/26 08:13:04;;;;;;;10.60;7.15;;;21.40;58.80;;;;;;4952656;29;20184;-89
2021/06/26 08:15:30;;;;;;;11.75;8.38;;;21.50;58.00;;;;;;4952506;29;20215;-89
2021/06/26 08:17:56;;;;;;;10.60;8.55;;;21.60;58.40;;;;;;4953774;28;20200;-88
2021/06/26 08:20:23;;;;;;;8.80;7.15;;;21.40;59.00;;;;;;4952482;29;20259;-88
2021/06/26 08:22:49;;;;;;;8.60;7.10;;;21.30;58.90;;;;;;4952463;29;20182;-89
2021/06/26 08:25:15;;;;;;;9.57;7.07;;;21.30;58.60;;;;;;4952324;28;20266;-89
2021/06/26 08:27:41;;;;;;;9.80;7.32;;;21.70;58.90;;;;;;4952363;28;20183;-89
2021/06/26 08:30:07;;;;;;;8.07;6.65;;;21.90;57.30;;;;;;4953528;29;20538;-89
2021/06/26 08:32:33;;;;;;;9.35;6.43;;;22.00;55.90;;;;;;4952361;29;20572;-88
2021/06/26 08:34:59;;;;;;;14.68;8.10;;;22.00;56.60;;;;;;4952201;29;20245;-89
2021/06/26 08:37:24;;;;;;;11.57;7.78;;;22.10;57.30;;;;;;4953414;28;20163;-89
2021/06/26 08:39:50;;;;;;;15.90;7.60;;;22.20;54.80;;;;;;4952533;28;20230;-89
2021/06/26 08:42:18;;;;;;;7.43;6.22;;;21.90;56.50;;;;;;4952187;28;20184;-89
2021/06/26 08:44:47;;;;;;;16.50;7.72;;;22.10;56.80;;;;;;4952696;28;20179;-88
2021/06/26 08:47:14;;;;;;;9.45;7.43;;;22.30;57.50;;;;;;4953316;28;20195;-88
2021/06/26 08:49:40;;;;;;;10.13;8.27;;;22.50;56.20;;;;;;4951748;28;20701;-89
2021/06/26 08:52:06;;;;;;;15.10;7.40;;;22.50;53.40;;;;;;4952016;28;20191;-88
2021/06/26 08:54:32;;;;;;;8.50;7.60;;;22.50;54.50;;;;;;4953038;28;20195;-89
2021/06/26 08:56:58;;;;;;;14.05;8.25;;;22.70;57.40;;;;;;4953302;28;20167;-89
2021/06/26 08:59:23;;;;;;;10.57;7.38;;;22.50;54.80;;;;;;4951884;28;20195;-90
2021/06/26 09:01:49;;;;;;;10.18;8.00;;;22.50;53.30;;;;;;4953188;29;20172;-90
2021/06/26 09:04:17;;;;;;;13.15;8.57;;;22.60;55.80;;;;;;4953092;29;20565;-90
2021/06/26 09:06:52;;;;;;;10.60;8.25;;;22.60;56.10;;;;;;4951850;28;20183;-90
2021/06/26 09:09:32;;;;;;;10.55;8.00;;;22.60;56.00;;;;;;4951928;29;20252;-90
2021/06/26 09:12:05;;;;;;;9.40;7.65;;;22.50;56.80;;;;;;4952060;29;20647;-89
2021/06/26 09:14:31;;;;;;;14.18;8.70;;;22.70;57.00;;;;;;4952833;28;20257;-89
2021/06/26 09:16:57;;;;;;;15.48;8.82;;;22.80;57.30;;;;;;4951735;29;20179;-90
2021/06/26 09:19:23;;;;;;;11.25;9.00;;;23.10;56.10;;;;;;4951631;29;20333;-90
2021/06/26 09:22:18;;;;;;;13.13;10.25;;;23.50;54.90;;;;;;4951712;29;20699;-89
2021/06/26 09:24:46;;;;;;;10.32;9.00;;;23.30;53.30;;;;;;4944511;28;20184;-89
2021/06/26 09:27:20;;;;;;;13.85;9.23;;;23.30;55.00;;;;;;4952785;28;20184;-88
2021/06/26 09:29:51;;;;;;;12.30;9.15;;;23.60;54.30;;;;;;4952643;29;20196;-88
2021/06/26 09:32:24;;;;;;;11.68;10.25;;;23.80;55.20;;;;;;4951420;29;20271;-88
2021/06/26 09:34:49;;;;;;;17.92;10.73;;;23.90;55.50;;;;;;4951258;29;20203;-88
2021/06/26 09:37:22;;;;;;;11.55;9.80;;;23.70;55.00;;;;;;4951466;29;20202;-88
2021/06/26 09:39:51;;;;;;;13.00;10.00;;;23.60;56.20;;;;;;4951152;29;20215;-86
2021/06/26 09:42:20;;;;;;;12.75;11.20;;;23.70;54.00;;;;;;4952535;28;20171;-89
2021/06/26 09:44:48;;;;;;;12.40;10.80;;;23.20;53.50;;;;;;4952537;28;20259;-89
2021/06/26 09:47:28;;;;;;;12.98;10.50;;;23.30;55.00;;;;;;4952124;29;20186;-90
2021/06/26 09:49:53;;;;;;;14.10;10.38;;;23.70;53.50;;;;;;4951262;29;20199;-89
2021/06/26 09:52:19;;;;;;;10.68;9.50;;;23.70;56.30;;;;;;4951260;29;20528;-88
2021/06/26 09:54:45;;;;;;;12.55;10.45;;;23.90;55.80;;;;;;4952824;29;20200;-89
2021/06/26 09:57:10;;;;;;;16.92;10.93;;;24.20;54.10;;;;;;4957346;28;20661;-89
2021/06/26 09:59:36;;;;;;;13.38;9.20;;;24.60;52.90;;;;;;4957423;29;20191;-89
2021/06/26 10:02:02;;;;;;;17.73;10.68;;;24.70;53.10;;;;;;4958993;29;20212;-88
2021/06/26 10:04:28;;;;;;;14.52;10.98;;;24.70;52.90;;;;;;4957462;28;20211;-88
2021/06/26 10:06:56;;;;;;;15.93;11.30;;;25.00;51.30;;;;;;4958681;28;20238;-89
2021/06/26 10:09:22;;;;;;;14.07;12.40;;;25.10;50.80;;;;;;4957412;29;20290;-89
2021/06/26 10:11:49;;;;;;;13.20;11.73;;;24.90;49.90;;;;;;4957360;28;20183;-88
2021/06/26 10:14:15;;;;;;;19.17;12.90;;;25.20;50.50;;;;;;4958633;28;20191;-89
2021/06/26 10:16:42;;;;;;;14.95;10.95;;;24.60;49.80;;;;;;4958436;29;20178;-89
2021/06/26 10:19:10;;;;;;;14.32;11.63;;;24.50;53.50;;;;;;4956988;29;20195;-89
2021/06/26 10:21:36;;;;;;;17.48;12.25;;;24.60;52.60;;;;;;4958381;28;20202;-89
2021/06/26 10:24:04;;;;;;;11.95;10.75;;;24.70;52.10;;;;;;4957084;29;20179;-89
2021/06/26 10:26:36;;;;;;;13.80;11.30;;;24.70;53.50;;;;;;4956999;29;20198;-89
2021/06/26 10:29:02;;;;;;;13.73;11.85;;;25.10;51.30;;;;;;4956957;29;20203;-90
2021/06/26 10:31:42;;;;;;;15.38;11.73;;;25.10;52.10;;;;;;4958281;28;20175;-89
2021/06/26 10:34:08;;;;;;;16.17;14.45;;;25.30;49.50;;;;;;4956928;29;20233;-89
2021/06/26 10:36:35;;;;;;;16.67;12.40;;;24.80;49.40;;;;;;4956888;28;20180;-90
2021/06/26 10:39:01;;;;;;;19.10;13.80;;;24.70;52.60;;;;;;4957907;28;20239;-90
2021/06/26 10:41:27;;;;;;;16.75;12.98;;;24.50;52.50;;;;;;4958360;28;20164;-90
2021/06/26 10:43:58;;;;;;;20.02;13.70;;;24.40;54.70;;;;;;4958057;29;20183;-90
2021/06/26 10:46:24;;;;;;;17.67;14.40;;;24.40;54.00;;;;;;4956835;29;20636;-90
2021/06/26 10:49:05;;;;;;;22.52;14.25;;;24.40;51.40;;;;;;4957853;28;20203;-90
2021/06/26 10:51:40;;;;;;;19.65;14.07;;;24.20;54.00;;;;;;4956833;28;20184;-89
2021/06/26 10:54:14;;;;;;;15.30;13.23;;;24.00;51.90;;;;;;4957829;28;20195;-88
2021/06/26 10:56:40;;;;;;;17.52;14.07;;;24.30;52.60;;;;;;4957913;28;20205;-89
2021/06/26 10:59:19;;;;;;;17.20;13.60;;;24.40;51.80;;;;;;4957759;28;20191;-88
2021/06/26 11:01:59;;;;;;;16.77;13.63;;;24.50;53.20;;;;;;4957053;29;20617;-89
2021/06/26 11:04:26;;;;;;;15.88;14.13;;;24.90;53.70;;;;;;4958065;28;20235;-89
2021/06/26 11:07:06;;;;;;;14.20;12.13;;;24.90;51.20;;;;;;4956739;28;20553;-89
2021/06/26 11:09:43;;;;;;;15.38;13.05;;;25.10;50.70;;;;;;4953174;29;20206;-89
2021/06/26 11:12:13;;;;;;;16.23;13.27;;;24.90;53.10;;;;;;4954998;28;20183;-89
2021/06/26 11:14:49;;;;;;;22.02;13.75;;;24.90;51.90;;;;;;4954641;28;20206;-90
2021/06/26 11:17:14;;;;;;;14.82;13.02;;;24.80;52.90;;;;;;4953350;29;20206;-89
2021/06/26 11:19:40;;;;;;;18.02;12.35;;;25.10;50.80;;;;;;4953224;29;20230;-90
2021/06/26 11:22:06;;;;;;;23.73;16.02;;;25.20;52.40;;;;;;4954599;29;20187;-87
2021/06/26 11:24:40;;;;;;;20.80;15.20;;;25.30;52.30;;;;;;4952971;28;20188;-85
2021/06/26 11:27:07;;;;;;;16.13;13.23;;;25.20;48.90;;;;;;4953114;29;20183;-85
2021/06/26 11:29:38;;;;;;;15.95;13.70;;;25.40;51.60;;;;;;4952996;29;20203;-86
2021/06/26 11:32:18;;;;;;;18.90;14.82;;;25.70;50.90;;;;;;4954159;28;20203;-86
2021/06/26 11:34:52;;;;;;;15.25;13.68;;;26.00;50.80;;;;;;4954155;28;20297;-86
2021/06/26 11:37:18;;;;;;;13.80;12.32;;;25.60;48.70;;;;;;4954479;28;20655;-85
2021/06/26 11:39:44;;;;;;;13.90;12.43;;;26.10;49.80;;;;;;4954719;28;20215;-87
2021/06/26 11:42:17;;;;;;;16.17;12.30;;;25.80;49.80;;;;;;4953427;29;20175;-87
2021/06/26 11:44:44;;;;;;;16.05;11.93;;;25.90;50.00;;;;;;4952970;29;20176;-88
2021/06/26 11:47:10;;;;;;;15.20;13.63;;;26.10;50.60;;;;;;4952872;29;20180;-88
2021/06/26 11:49:54;;;;;;;17.67;13.00;;;26.60;49.40;;;;;;4952901;29;20286;-87
2021/06/26 11:52:20;;;;;;;17.45;12.93;;;26.50;47.80;;;;;;4952901;29;20337;-88
2021/06/26 11:54:45;;;;;;;19.33;13.57;;;26.40;47.70;;;;;;4952722;29;20215;-87
2021/06/26 11:57:13;;;;;;;14.45;12.88;;;25.80;46.80;;;;;;4952866;29;20260;-87
2021/06/26 11:59:44;;;;;;;16.55;13.52;;;26.10;47.60;;;;;;4952847;29;20199;-87
2021/06/26 12:02:12;;;;;;;15.48;11.43;;;26.20;47.40;;;;;;4954172;28;20554;-87
2021/06/26 12:04:38;;;;;;;13.07;11.70;;;26.50;48.20;;;;;;4952461;29;20203;-86
2021/06/26 12:07:09;;;;;;;16.15;12.63;;;26.90;49.10;;;;;;4954021;28;20176;-87
2021/06/26 12:09:37;;;;;;;11.77;10.18;;;27.00;45.90;;;;;;4952571;29;20577;-87
2021/06/26 12:12:04;;;;;;;15.13;12.98;;;27.00;46.60;;;;;;4952502;29;20214;-87
2021/06/26 12:14:33;;;;;;;14.02;11.90;;;27.00;45.10;;;;;;4953706;28;20262;-86
2021/06/26 12:17:04;;;;;;;14.15;12.07;;;26.80;45.20;;;;;;4952285;29;20179;-87
2021/06/26 12:19:30;;;;;;;15.65;12.35;;;26.60;47.10;;;;;;4951090;29;20207;-87
2021/06/26 12:21:56;;;;;;;13.25;11.95;;;26.70;47.30;;;;;;4953578;28;20172;-87
2021/06/26 12:24:34;;;;;;;15.02;11.75;;;26.20;46.80;;;;;;4952324;29;20210;-87
2021/06/26 12:27:08;;;;;;;12.52;11.23;;;26.10;47.60;;;;;;4952227;28;20184;-87
2021/06/26 12:29:35;;;;;;;15.15;11.27;;;26.20;48.60;;;;;;4953361;28;20241;-87
2021/06/26 12:32:01;;;;;;;13.77;10.15;;;26.20;48.30;;;;;;4953318;28;20184;-87
2021/06/26 12:34:27;;;;;;;14.07;10.98;;;26.50;48.90;;;;;;4952163;29;20179;-87
2021/06/26 12:36:54;;;;;;;11.63;10.13;;;26.70;47.10;;;;;;4952111;29;20187;-87